Time;durP1;ratioP1;P1;durP2;ratioP2;P2;SDS_P1;SDS_P2;PMS_P1;PMS_P2;Temp;Humidity;BMP_temperature;BMP_pressure;BME280_temperature;BME280_humidity;BME280_pressure;Samples;Min_cycle;Max_cycle;Signal;HPM_P1;HPM_P2
2022/05/25 05:45:46;;;;;;;;;;;13.10;1.00;;;;;;4862981;29;20601;-79
2022/05/25 05:48:18;;;;;;;;;;;13.30;99.90;;;;;;4843802;29;19927;-79
2022/05/25 05:50:50;;;;;;;;;;;13.50;99.90;;;;;;4846097;29;20429;-79
2022/05/25 05:53:31;;;;;;;;;;;;;;;;;;;;;
2022/05/25 05:55:58;;;;;;;;;;;14.30;1.00;;;;;;4841666;29;20472;-80
2022/05/25 05:58:34;;;;;;;;;;;15.60;1.00;;;;;;4844416;29;19976;-81
2022/05/25 06:01:22;;;;;;;;;;;18.20;99.90;;;;;;4846436;29;19916;-80
2022/05/25 06:04:03;;;;;;;;;;;21.30;99.90;;;;;;4840036;29;20317;-81
2022/05/25 06:06:31;;;;;;;;;;;24.30;99.90;;;;;;4840141;29;19921;-81
2022/05/25 06:12:15;;;;;;;;;;;28.80;99.90;;;;;;4847083;29;19921;-82
2022/05/25 06:14:51;;;;;;;;;;;30.40;99.90;;;;;;4840306;29;19917;-81
2022/05/25 06:20:18;;;;;;;;;;;;;;;;;;;;;
2022/05/25 06:22:54;;;;;;;;;;;34.40;99.90;;;;;;4845525;29;19992;-80
2022/05/25 06:25:25;;;;;;;;;;;35.50;99.90;;;;;;4861304;29;19972;-80
2022/05/25 06:28:03;;;;;;;;;;;;;;;;;;;;;
2022/05/25 06:30:41;;;;;;;;;;;;;;;;;;;;;
2022/05/25 06:33:30;;;;;;;;;;;36.90;99.90;;;;;;4843488;29;20009;-80
2022/05/25 06:36:18;;;;;;;;;;;37.60;99.90;;;;;;4833400;29;19920;-80
2022/05/25 06:38:46;;;;;;;;;;;37.70;99.90;;;;;;4844596;29;19917;-80
2022/05/25 06:41:14;;;;;;;;;;;38.40;99.90;;;;;;4844063;29;19917;-79
2022/05/25 06:43:49;;;;;;;;;;;;;;;;;;;;;
2022/05/25 06:46:28;;;;;;;;;;;40.50;99.90;;;;;;4842990;29;19999;-80
2022/05/25 06:48:57;;;;;;;;;;;41.90;99.90;;;;;;4842166;29;20007;-81
2022/05/25 06:51:51;;;;;;;;;;;;;;;;;;;;;
2022/05/25 06:54:20;;;;;;;;;;;43.80;99.90;;;;;;4844263;29;20015;-80
2022/05/25 06:56:56;;;;;;;;;;;44.00;99.90;;;;;;4840406;29;19921;-81
2022/05/25 06:59:24;;;;;;;;;;;44.90;99.90;;;;;;4837607;29;20290;-81
2022/05/25 07:01:57;;;;;;;;;;;45.10;99.90;;;;;;4845707;29;19916;-81
2022/05/25 07:04:26;;;;;;;;;;;45.40;99.90;;;;;;4839106;29;19913;-81
2022/05/25 07:09:57;;;;;;;;;;;45.60;99.90;;;;;;4843915;29;19935;-81
2022/05/25 07:12:33;;;;;;;;;;;;;;;;;;;;;
2022/05/25 07:15:31;;;;;;;;;;;46.20;99.90;;;;;;4843407;29;19921;-81
2022/05/25 07:20:50;;;;;;;;;;;47.00;99.90;;;;;;4842699;29;19921;-81
2022/05/25 07:23:24;;;;;;;;;;;47.30;99.90;;;;;;4842110;29;19921;-81
2022/05/25 07:25:55;;;;;;;;;;;47.10;99.90;;;;;;4843431;29;20639;-82
2022/05/25 07:28:28;;;;;;;;;;;47.00;99.90;;;;;;4840261;29;20677;-81
2022/05/25 07:34:20;;;;;;;;;;;47.00;99.90;;;;;;4824935;29;19955;-82
2022/05/25 07:37:12;;;;;;;;;;;47.10;99.90;;;;;;4844012;29;20021;-81
2022/05/25 07:40:12;;;;;;;;;;;;;;;;;;;;;
2022/05/25 07:43:08;;;;;;;;;;;;;;;;;;;;;
2022/05/25 07:46:02;;;;;;;;;;;46.30;99.90;;;;;;4839249;29;19999;-81
2022/05/25 07:48:31;;;;;;;;;;;45.30;99.90;;;;;;4840411;29;19967;-81
2022/05/25 07:51:17;;;;;;;;;;;46.00;99.90;;;;;;4842150;29;19917;-81
2022/05/25 07:53:55;;;;;;;;;;;46.10;99.90;;;;;;4843994;29;19917;-81
2022/05/25 07:56:32;;;;;;;;;;;46.50;99.90;;;;;;4861525;29;19992;-82
2022/05/25 07:59:18;;;;;;;;;;;;;;;;;;;;;
2022/05/25 08:07:30;;;;;;;;;;;44.90;99.90;;;;;;4841756;29;19927;-81
2022/05/25 08:10:26;;;;;;;;;;;45.40;99.90;;;;;;4843551;29;19988;-81
2022/05/25 08:13:10;;;;;;;;;;;44.60;98.40;;;;;;4840459;29;19927;-81
2022/05/25 08:15:49;;;;;;;;;;;45.40;98.60;;;;;;4842409;29;20373;-82
2022/05/25 08:18:26;;;;;;;;;;;;;;;;;;;;;
2022/05/25 08:23:40;;;;;;;;;;;45.50;97.70;;;;;;4840261;29;19921;-81
2022/05/25 08:26:18;;;;;;;;;;;45.10;96.40;;;;;;4840344;29;20310;-81
2022/05/25 08:28:52;;;;;;;;;;;45.30;95.80;;;;;;4838440;29;20401;-81
2022/05/25 08:31:20;;;;;;;;;;;44.90;94.90;;;;;;4845988;29;19921;-81
2022/05/25 08:36:37;;;;;;;;;;;45.10;94.50;;;;;;4828699;29;20297;-81
2022/05/25 08:39:05;;;;;;;;;;;45.60;95.20;;;;;;4839927;29;19927;-80
2022/05/25 08:41:41;;;;;;;;;;;45.10;99.90;;;;;;4845214;29;19917;-81
2022/05/25 08:44:10;;;;;;;;;;;45.10;93.50;;;;;;4845382;29;19920;-81
2022/05/25 08:46:39;;;;;;;;;;;44.40;92.80;;;;;;4847621;29;19925;-81
2022/05/25 08:49:12;;;;;;;;;;;43.60;90.70;;;;;;4844078;29;19928;-81
2022/05/25 08:51:55;;;;;;;;;;;43.80;90.70;;;;;;4842647;29;19920;-81
2022/05/25 08:54:37;;;;;;;;;;;43.70;90.40;;;;;;4840538;29;19924;-80
2022/05/25 08:57:11;;;;;;;;;;;42.30;85.00;;;;;;4858841;29;20010;-81
2022/05/25 08:59:45;;;;;;;;;;;41.00;80.00;;;;;;4841562;29;19921;-80
2022/05/25 09:02:35;;;;;;;;;;;39.50;75.80;;;;;;4840509;29;19992;-80
2022/05/25 09:05:11;;;;;;;;;;;38.80;74.60;;;;;;4838545;29;19969;-80
2022/05/25 09:08:01;;;;;;;;;;;38.70;76.80;;;;;;4846328;29;19992;-80
2022/05/25 09:10:30;;;;;;;;;;;38.20;76.10;;;;;;4839629;29;19917;-80
2022/05/25 09:13:05;;;;;;;;;;;39.20;81.80;;;;;;4840972;29;19924;-80
2022/05/25 09:15:34;;;;;;;;;;;40.70;86.90;;;;;;4848096;29;19924;-80
2022/05/25 09:18:15;;;;;;;;;;;39.60;82.70;;;;;;4845177;29;20306;-81
2022/05/25 09:20:42;;;;;;;;;;;38.30;76.40;;;;;;4844477;29;19976;-80
2022/05/25 09:23:09;;;;;;;;;;;36.70;72.60;;;;;;4843384;29;19916;-80
2022/05/25 09:26:04;;;;;;;;;;;37.10;76.80;;;;;;4841668;29;20405;-81
2022/05/25 09:28:33;;;;;;;;;;;38.40;82.40;;;;;;4843252;29;19924;-80
2022/05/25 09:31:04;;;;;;;;;;;37.40;78.70;;;;;;4843286;29;19917;-80
2022/05/25 09:34:13;;;;;;;;;;;38.20;81.30;;;;;;4840906;29;19917;-80
2022/05/25 09:37:08;;;;;;;;;;;39.30;87.20;;;;;;4803535;29;19964;-80
2022/05/25 09:39:39;;;;;;;;;;;41.20;91.40;;;;;;4837850;29;19916;-80
2022/05/25 09:42:11;;;;;;;;;;;41.80;91.90;;;;;;4846883;29;19917;-81
2022/05/25 09:45:06;;;;;;;;;;;;;;;;;;;;;
2022/05/25 09:47:56;;;;;;;;;;;41.70;90.70;;;;;;4843963;29;20047;-80
2022/05/25 09:50:30;;;;;;;;;;;40.70;87.20;;;;;;4858325;29;20015;-80
2022/05/25 09:53:20;;;;;;;;;;;40.80;86.20;;;;;;4843628;29;19913;-80
2022/05/25 09:56:06;;;;;;;;;;;40.80;84.70;;;;;;4843550;29;19960;-81
2022/05/25 09:58:32;;;;;;;;;;;40.80;83.80;;;;;;4840625;29;19917;-80
2022/05/25 10:01:03;;;;;;;;;;;40.50;81.70;;;;;;4847091;29;19956;-80
2022/05/25 10:06:28;;;;;;;;;;;39.50;77.10;;;;;;4841846;29;19937;-80
2022/05/25 10:09:13;;;;;;;;;;;39.60;77.10;;;;;;4838459;29;19924;-81
2022/05/25 10:12:00;;;;;;;;;;;39.60;78.70;;;;;;4843044;29;20345;-80
2022/05/25 10:14:46;;;;;;;;;;;38.40;72.40;;;;;;4843187;29;19916;-80
2022/05/25 10:17:14;;;;;;;;;;;38.60;74.60;;;;;;4846455;29;19920;-80
2022/05/25 10:19:50;;;;;;;;;;;38.10;70.70;;;;;;4845039;29;19912;-80
2022/05/25 10:22:34;;;;;;;;;;;38.30;72.70;;;;;;4843368;29;19916;-80
2022/05/25 10:25:08;;;;;;;;;;;38.00;72.70;;;;;;4843400;29;19961;-80
2022/05/25 10:27:39;;;;;;;;;;;38.10;72.60;;;;;;4843569;29;20007;-81
2022/05/25 10:38:45;;;;;;;;;;;36.20;67.30;;;;;;4846362;29;19922;-79
2022/05/25 10:44:12;;;;;;;;;;;32.50;56.90;;;;;;4841892;29;19924;-79
2022/05/25 10:46:39;;;;;;;;;;;30.40;53.20;;;;;;4836297;29;20026;-79
2022/05/25 10:49:31;;;;;;;;;;;29.00;51.60;;;;;;4842352;29;19917;-79
2022/05/25 10:51:59;;;;;;;;;;;29.40;54.80;;;;;;4841443;29;19920;-80
2022/05/25 10:54:54;;;;;;;;;;;32.10;67.30;;;;;;4851101;29;19928;-79
2022/05/25 10:57:32;;;;;;;;;;;32.70;69.90;;;;;;4837092;29;19972;-80
2022/05/25 11:00:16;;;;;;;;;;;33.50;73.60;;;;;;4837533;29;19930;-80
2022/05/25 11:03:01;;;;;;;;;;;34.40;78.80;;;;;;4835887;29;19970;-79
2022/05/25 11:05:26;;;;;;;;;;;32.50;71.70;;;;;;4844102;29;19923;-79
2022/05/25 11:07:58;;;;;;;;;;;30.90;66.00;;;;;;4842255;29;19943;-79
2022/05/25 11:10:43;;;;;;;;;;;29.10;60.90;;;;;;4841901;29;20042;-81
2022/05/25 11:13:27;;;;;;;;;;;28.00;59.00;;;;;;4836275;29;19946;-79
2022/05/25 11:15:58;;;;;;;;;;;26.90;58.40;;;;;;4833096;29;19920;-79
2022/05/25 11:18:50;;;;;;;;;;;27.40;61.60;;;;;;4834622;29;19924;-79
2022/05/25 11:21:25;;;;;;;;;;;29.30;71.80;;;;;;4836662;29;19952;-80
2022/05/25 11:23:50;;;;;;;;;;;30.90;79.00;;;;;;4857807;29;19924;-79
2022/05/25 11:26:15;;;;;;;;;;;29.70;72.20;;;;;;4836779;29;19917;-79
2022/05/25 11:28:41;;;;;;;;;;;28.60;68.40;;;;;;4840623;29;19936;-78
2022/05/25 11:31:10;;;;;;;;;;;27.60;64.90;;;;;;4835527;29;19920;-80
2022/05/25 11:37:12;;;;;;;;;;;30.30;79.40;;;;;;4834579;29;19925;-80
2022/05/25 11:40:25;;;;;;;;;;;30.50;79.20;;;;;;4840873;29;20031;-80
2022/05/25 11:46:38;;;;;;;;;;;29.70;77.30;;;;;;4841709;29;19971;-79
2022/05/25 11:52:46;;;;;;;;;;;31.30;85.40;;;;;;4825783;29;19928;-80
2022/05/25 12:05:10;;;;;;;;;;;30.10;79.20;;;;;;4824875;29;20044;-79
2022/05/25 12:14:46;;;;;;;;;;;;;;;;;;;;;
2022/05/25 12:23:47;;;;;;;;;;;31.50;88.20;;;;;;4842337;29;19916;-79
2022/05/25 12:26:27;;;;;;;;;;;31.20;86.30;;;;;;4838183;29;19917;-79
2022/05/25 12:29:22;;;;;;;;;;;31.10;84.40;;;;;;4834557;29;20019;-79
2022/05/25 12:31:53;;;;;;;;;;;31.40;86.00;;;;;;4840186;29;19924;-79
2022/05/25 12:34:46;;;;;;;;;;;30.80;82.10;;;;;;4845316;29;19917;-79
2022/05/25 12:37:25;;;;;;;;;;;30.70;81.70;;;;;;4845698;29;19952;-79
2022/05/25 12:39:53;;;;;;;;;;;30.80;82.90;;;;;;4846070;29;19931;-79
2022/05/25 12:42:27;;;;;;;;;;;30.80;82.30;;;;;;4838604;29;19956;-79
2022/05/25 12:50:49;;;;;;;;;;;29.70;75.20;;;;;;4843322;29;19945;-79
2022/05/25 12:53:40;;;;;;;;;;;28.30;68.70;;;;;;4843624;29;19929;-79
2022/05/25 12:56:12;;;;;;;;;;;28.20;70.70;;;;;;4860713;29;19921;-79
2022/05/25 12:58:53;;;;;;;;;;;28.30;70.70;;;;;;4846360;29;19952;-79
2022/05/25 13:01:21;;;;;;;;;;;28.30;71.40;;;;;;4862265;29;19931;-80
2022/05/25 13:03:52;;;;;;;;;;;28.50;72.60;;;;;;4848049;29;19916;-80
2022/05/25 13:06:18;;;;;;;;;;;28.90;76.10;;;;;;4842337;29;19939;-80
2022/05/25 13:08:49;;;;;;;;;;;27.80;67.40;;;;;;4842702;29;19917;-79
2022/05/25 13:11:29;;;;;;;;;;;27.30;66.90;;;;;;4844661;29;20414;-79
2022/05/25 13:13:55;;;;;;;;;;;26.70;65.30;;;;;;4844296;29;20301;-81
2022/05/25 13:16:40;;;;;;;;;;;26.70;66.80;;;;;;4843440;29;19921;-80
2022/05/25 13:19:17;;;;;;;;;;;26.40;65.00;;;;;;4863211;29;20020;-80
2022/05/25 13:21:44;;;;;;;;;;;26.90;69.20;;;;;;4844958;29;19950;-80
2022/05/25 13:24:24;;;;;;;;;;;26.20;66.40;;;;;;4844058;29;19924;-80
2022/05/25 13:27:09;;;;;;;;;;;26.40;69.00;;;;;;4845518;29;20005;-80
2022/05/25 13:29:49;;;;;;;;;;;26.80;72.10;;;;;;4858567;29;19976;-80
2022/05/25 13:32:26;;;;;;;;;;;27.20;73.40;;;;;;4847668;29;19931;-80
2022/05/25 13:35:01;;;;;;;;;;;27.60;77.00;;;;;;4842549;29;19928;-80
2022/05/25 13:37:26;;;;;;;;;;;27.00;72.60;;;;;;4861416;29;20019;-80
2022/05/25 13:39:52;;;;;;;;;;;26.60;73.20;;;;;;4844460;29;19951;-80
2022/05/25 13:42:21;;;;;;;;;;;26.10;70.40;;;;;;4844399;29;19916;-80
2022/05/25 13:44:48;;;;;;;;;;;26.10;71.20;;;;;;4841066;29;19924;-80
2022/05/25 13:47:35;;;;;;;;;;;26.00;71.40;;;;;;4843079;29;19917;-79
2022/05/25 13:50:03;;;;;;;;;;;25.60;70.30;;;;;;4842874;29;19925;-79
2022/05/25 13:52:37;;;;;;;;;;;25.30;69.50;;;;;;4840731;29;19917;-80
2022/05/25 13:55:23;;;;;;;;;;;25.10;69.20;;;;;;4840150;29;19924;-80
2022/05/25 13:57:59;;;;;;;;;;;24.80;68.80;;;;;;4860277;29;19939;-80
2022/05/25 14:00:36;;;;;;;;;;;24.90;69.20;;;;;;4839818;29;19924;-79
2022/05/25 14:03:20;;;;;;;;;;;24.60;70.30;;;;;;4845076;29;19988;-80
2022/05/25 14:06:00;;;;;;;;;;;24.50;71.20;;;;;;4859018;29;19917;-79
2022/05/25 14:11:35;;;;;;;;;;;23.60;66.70;;;;;;4840999;29;19923;-79
2022/05/25 14:14:11;;;;;;;;;;;23.70;68.70;;;;;;4843701;29;19916;-80
2022/05/25 14:16:42;;;;;;;;;;;23.70;69.20;;;;;;4837973;29;19984;-79
2022/05/25 14:19:10;;;;;;;;;;;23.70;70.40;;;;;;4840827;29;20514;-79
2022/05/25 14:21:39;;;;;;;;;;;23.70;71.00;;;;;;4842214;29;20906;-79
2022/05/25 14:24:18;;;;;;;;;;;23.70;72.10;;;;;;4837323;29;20007;-79
2022/05/25 14:26:51;;;;;;;;;;;23.70;72.90;;;;;;4844136;29;19927;-79
2022/05/25 14:29:18;;;;;;;;;;;23.60;72.30;;;;;;4847357;29;19955;-79
2022/05/25 14:31:51;;;;;;;;;;;23.40;72.10;;;;;;4845124;29;19925;-78
2022/05/25 14:34:19;;;;;;;;;;;23.40;72.60;;;;;;4842946;29;19920;-80
2022/05/25 14:36:46;;;;;;;;;;;23.50;74.30;;;;;;4857820;29;19931;-80
2022/05/25 14:39:13;;;;;;;;;;;23.50;73.20;;;;;;4842981;29;19917;-79
2022/05/25 14:41:45;;;;;;;;;;;23.30;72.60;;;;;;4841900;29;19916;-79
2022/05/25 14:44:28;;;;;;;;;;;23.30;73.00;;;;;;4845551;29;20255;-79
2022/05/25 14:46:54;;;;;;;;;;;23.60;74.30;;;;;;4844612;29;19916;-79
2022/05/25 14:49:19;;;;;;;;;;;23.40;73.90;;;;;;4845860;29;19939;-79
2022/05/25 14:51:45;;;;;;;;;;;23.60;76.60;;;;;;4841064;29;19916;-80
2022/05/25 14:54:13;;;;;;;;;;;23.70;76.10;;;;;;4845789;29;19920;-79
2022/05/25 14:56:39;;;;;;;;;;;23.80;78.40;;;;;;4842576;29;19927;-79
2022/05/25 14:59:06;;;;;;;;;;;23.80;79.60;;;;;;4837003;29;19916;-79
2022/05/25 15:01:33;;;;;;;;;;;23.70;79.30;;;;;;4842363;29;19924;-79
2022/05/25 15:04:09;;;;;;;;;;;23.40;78.20;;;;;;4841500;29;19920;-79
2022/05/25 15:06:41;;;;;;;;;;;23.20;76.00;;;;;;4844958;29;19996;-79
2022/05/25 15:09:07;;;;;;;;;;;23.10;77.90;;;;;;4845164;29;19939;-80
2022/05/25 15:11:38;;;;;;;;;;;23.10;78.40;;;;;;4842754;29;19917;-80
2022/05/25 15:19:44;;;;;;;;;;;23.30;81.50;;;;;;4836831;29;19922;-79
2022/05/25 15:22:14;;;;;;;;;;;23.20;82.30;;;;;;4842014;29;19969;-79
2022/05/25 15:24:40;;;;;;;;;;;23.20;81.90;;;;;;4844881;29;19917;-79
2022/05/25 15:27:08;;;;;;;;;;;23.30;83.70;;;;;;4844537;29;20374;-79
2022/05/25 15:29:44;;;;;;;;;;;23.30;83.50;;;;;;4841498;29;19923;-78
2022/05/25 15:32:09;;;;;;;;;;;23.40;84.20;;;;;;4841321;29;19965;-79
2022/05/25 15:34:35;;;;;;;;;;;23.30;85.00;;;;;;4858914;29;19916;-79
2022/05/25 15:37:00;;;;;;;;;;;23.30;86.30;;;;;;4839020;29;19917;-78
2022/05/25 15:39:26;;;;;;;;;;;23.30;86.00;;;;;;4839210;29;20892;-78
2022/05/25 15:41:51;;;;;;;;;;;23.00;86.30;;;;;;4834415;29;19917;-79
2022/05/25 15:44:17;;;;;;;;;;;23.20;88.00;;;;;;4854103;29;20477;-78
2022/05/25 15:46:44;;;;;;;;;;;23.10;89.50;;;;;;4839569;29;20325;-78
2022/05/25 15:49:14;;;;;;;;;;;23.10;89.20;;;;;;4841355;29;19916;-79
2022/05/25 15:51:42;;;;;;;;;;;22.90;89.60;;;;;;4843083;29;19917;-79
2022/05/25 15:54:08;;;;;;;;;;;22.80;90.10;;;;;;4837180;29;20273;-79
2022/05/25 15:56:33;;;;;;;;;;;23.00;90.70;;;;;;4840486;29;19984;-79
2022/05/25 15:58:59;;;;;;;;;;;22.90;90.60;;;;;;4835469;29;19965;-79
2022/05/25 16:01:26;;;;;;;;;;;22.90;91.50;;;;;;4845541;29;20297;-79
2022/05/25 16:03:54;;;;;;;;;;;23.00;91.80;;;;;;4839198;29;19917;-79
2022/05/25 16:06:22;;;;;;;;;;;22.80;91.40;;;;;;4837191;29;19917;-79
2022/05/25 16:11:34;;;;;;;;;;;22.20;91.20;;;;;;4844817;29;19928;-79
2022/05/25 16:14:02;;;;;;;;;;;21.90;90.90;;;;;;4840182;29;19916;-78
2022/05/25 16:16:32;;;;;;;;;;;21.60;90.70;;;;;;4835218;29;19948;-78
2022/05/25 16:18:58;;;;;;;;;;;21.50;91.20;;;;;;4838811;29;19924;-79
2022/05/25 16:21:24;;;;;;;;;;;21.40;90.80;;;;;;4855689;29;19935;-79
2022/05/25 16:23:49;;;;;;;;;;;21.40;91.40;;;;;;4840798;29;20009;-80
2022/05/25 16:26:17;;;;;;;;;;;21.50;92.50;;;;;;4848575;29;19916;-80
2022/05/25 16:28:49;;;;;;;;;;;21.50;93.20;;;;;;4841292;29;19921;-80
2022/05/25 16:31:16;;;;;;;;;;;21.40;93.30;;;;;;4847391;29;19951;-79
2022/05/25 16:33:44;;;;;;;;;;;21.40;93.80;;;;;;4848358;29;20006;-81
2022/05/25 16:36:12;;;;;;;;;;;21.40;94.00;;;;;;4843924;29;19916;-79
2022/05/25 16:38:37;;;;;;;;;;;21.30;94.20;;;;;;4840351;29;19975;-79
2022/05/25 16:41:03;;;;;;;;;;;21.20;94.90;;;;;;4847988;29;20385;-79
2022/05/25 16:43:29;;;;;;;;;;;21.00;94.00;;;;;;4846592;29;19925;-80
2022/05/25 16:45:54;;;;;;;;;;;20.90;94.30;;;;;;4854462;29;19984;-81
2022/05/25 16:48:20;;;;;;;;;;;20.70;94.80;;;;;;4849357;29;19925;-81
2022/05/25 16:50:45;;;;;;;;;;;20.60;94.70;;;;;;4851736;29;19943;-80
2022/05/25 16:53:11;;;;;;;;;;;20.40;94.80;;;;;;4852132;29;19958;-78
2022/05/25 16:55:36;;;;;;;;;;;20.40;95.10;;;;;;4851674;29;19924;-79
2022/05/25 16:58:02;;;;;;;;;;;20.30;95.50;;;;;;4849745;29;20004;-79
2022/05/25 17:00:28;;;;;;;;;;;20.20;96.30;;;;;;4856834;29;20346;-81
2022/05/25 17:02:54;;;;;;;;;;;20.20;96.80;;;;;;4857691;29;19917;-79
2022/05/25 17:05:20;;;;;;;;;;;20.20;97.20;;;;;;4861146;29;19968;-79
2022/05/25 17:07:46;;;;;;;;;;;20.20;97.70;;;;;;4846316;29;19924;-79
2022/05/25 17:10:11;;;;;;;;;;;20.30;98.70;;;;;;4851915;29;20329;-78
2022/05/25 17:12:37;;;;;;;;;;;20.20;98.40;;;;;;4856423;29;19988;-81
2022/05/25 17:15:03;;;;;;;;;;;20.30;98.80;;;;;;4851426;29;19920;-81
2022/05/25 17:17:29;;;;;;;;;;;20.30;99.30;;;;;;4850491;29;20231;-81
2022/05/25 17:22:38;;;;;;;;;;;20.20;99.90;;;;;;4847575;29;19989;-79
2022/05/25 17:25:04;;;;;;;;;;;20.10;99.70;;;;;;4847483;29;19951;-79
2022/05/25 17:27:30;;;;;;;;;;;20.00;99.90;;;;;;4866113;29;20882;-78
2022/05/25 17:29:56;;;;;;;;;;;19.80;99.90;;;;;;4863039;29;20185;-78
2022/05/25 17:32:22;;;;;;;;;;;19.80;99.90;;;;;;4849771;29;19923;-78
2022/05/25 17:34:47;;;;;;;;;;;19.60;99.90;;;;;;4847180;29;19916;-79
2022/05/25 17:42:42;;;;;;;;;;;19.50;99.90;;;;;;4847767;29;19992;-81
2022/05/25 17:45:08;;;;;;;;;;;19.50;99.90;;;;;;4846718;29;20393;-81
2022/05/25 17:47:34;;;;;;;;;;;19.50;99.90;;;;;;4849026;29;19916;-82
2022/05/25 17:49:59;;;;;;;;;;;19.40;99.90;;;;;;4853508;29;19931;-81
2022/05/25 17:52:25;;;;;;;;;;;19.40;99.90;;;;;;4853244;29;19921;-82
2022/05/25 17:54:51;;;;;;;;;;;19.30;99.90;;;;;;4851750;29;19920;-81
2022/05/25 17:57:16;;;;;;;;;;;19.30;99.90;;;;;;4851321;29;20407;-81
2022/05/25 17:59:44;;;;;;;;;;;19.30;99.90;;;;;;4845128;29;19929;-81
2022/05/25 18:02:12;;;;;;;;;;;19.20;99.90;;;;;;4858528;29;19920;-82
2022/05/25 18:04:38;;;;;;;;;;;19.20;99.90;;;;;;4851228;29;20436;-82
2022/05/25 18:07:07;;;;;;;;;;;19.10;99.90;;;;;;4851753;29;19921;-82
2022/05/25 18:09:36;;;;;;;;;;;19.20;99.90;;;;;;4850876;29;19977;-82
2022/05/25 18:12:06;;;;;;;;;;;19.20;99.90;;;;;;4844677;29;21408;-82
2022/05/25 18:14:42;;;;;;;;;;;19.20;99.90;;;;;;4845899;29;19916;-82
2022/05/25 18:17:08;;;;;;;;;;;19.20;99.90;;;;;;4847118;29;19916;-79
2022/05/25 18:19:34;;;;;;;;;;;19.10;99.90;;;;;;4843457;29;20290;-81
2022/05/25 18:22:01;;;;;;;;;;;19.00;99.90;;;;;;4843653;29;19917;-81
2022/05/25 18:24:27;;;;;;;;;;;19.00;99.90;;;;;;4843777;29;19921;-81
2022/05/25 18:26:53;;;;;;;;;;;18.90;99.90;;;;;;4840791;29;19928;-81
2022/05/25 18:29:19;;;;;;;;;;;18.80;99.90;;;;;;4862369;29;19943;-80
2022/05/25 18:31:44;;;;;;;;;;;18.70;99.90;;;;;;4845894;29;19920;-80
2022/05/25 18:34:09;;;;;;;;;;;18.70;99.90;;;;;;4846483;29;19920;-79
2022/05/25 18:36:37;;;;;;;;;;;18.60;99.90;;;;;;4844261;29;19922;-79
2022/05/25 18:39:03;;;;;;;;;;;18.50;99.90;;;;;;4844817;29;19925;-79
2022/05/25 18:41:29;;;;;;;;;;;18.50;99.90;;;;;;4843576;29;19917;-80
2022/05/25 18:43:55;;;;;;;;;;;18.50;99.90;;;;;;4845228;29;19924;-82
2022/05/25 18:46:22;;;;;;;;;;;18.40;99.90;;;;;;4843794;29;20453;-81
2022/05/25 18:48:48;;;;;;;;;;;18.30;99.90;;;;;;4843246;29;19924;-82
2022/05/25 18:51:14;;;;;;;;;;;18.30;99.90;;;;;;4845686;29;19939;-79
2022/05/25 18:53:39;;;;;;;;;;;18.30;99.90;;;;;;4842442;29;19928;-79
2022/05/25 18:56:05;;;;;;;;;;;18.30;99.90;;;;;;4845596;29;20385;-81
2022/05/25 18:58:30;;;;;;;;;;;18.20;99.90;;;;;;4844553;29;20340;-81
2022/05/25 19:00:56;;;;;;;;;;;18.20;99.90;;;;;;4846103;29;19920;-82
2022/05/25 19:03:22;;;;;;;;;;;18.20;99.90;;;;;;4857738;29;19912;-81
2022/05/25 19:05:47;;;;;;;;;;;18.10;99.90;;;;;;4845894;29;20464;-81
2022/05/25 19:08:13;;;;;;;;;;;18.00;99.90;;;;;;4845129;29;19912;-81
2022/05/25 19:10:38;;;;;;;;;;;18.00;99.90;;;;;;4846448;29;19932;-81
2022/05/25 19:13:04;;;;;;;;;;;18.00;99.90;;;;;;4844987;29;19939;-82
2022/05/25 19:15:30;;;;;;;;;;;18.00;99.90;;;;;;4841551;29;19981;-82
2022/05/25 19:17:55;;;;;;;;;;;17.90;99.90;;;;;;4841351;29;19959;-79
2022/05/25 19:20:21;;;;;;;;;;;17.90;99.90;;;;;;4842077;29;19921;-79
2022/05/25 19:22:51;;;;;;;;;;;17.90;99.90;;;;;;4843857;29;19992;-79
2022/05/25 19:25:18;;;;;;;;;;;17.80;99.90;;;;;;4841282;29;19924;-79
2022/05/25 19:27:44;;;;;;;;;;;17.80;99.90;;;;;;4842270;29;19917;-79
2022/05/25 19:30:10;;;;;;;;;;;17.80;99.90;;;;;;4841258;29;20294;-79
2022/05/25 19:32:36;;;;;;;;;;;17.80;99.90;;;;;;4843175;29;19935;-80
2022/05/25 19:35:02;;;;;;;;;;;17.70;99.90;;;;;;4845155;29;19944;-79
2022/05/25 19:37:28;;;;;;;;;;;17.70;99.90;;;;;;4844524;29;19917;-79
2022/05/25 19:39:55;;;;;;;;;;;17.70;99.90;;;;;;4855899;29;19970;-79
2022/05/25 19:42:41;;;;;;;;;;;17.70;99.90;;;;;;4847191;29;19917;-79
2022/05/25 19:45:09;;;;;;;;;;;17.70;99.90;;;;;;4842451;29;19924;-80
2022/05/25 19:47:35;;;;;;;;;;;17.60;99.90;;;;;;4842951;29;19917;-80
2022/05/25 19:52:44;;;;;;;;;;;17.60;99.90;;;;;;4842038;29;19923;-80
2022/05/25 19:55:10;;;;;;;;;;;17.60;99.90;;;;;;4842398;29;19916;-79
2022/05/25 19:57:37;;;;;;;;;;;17.60;99.90;;;;;;4844113;29;19992;-79
2022/05/25 20:00:05;;;;;;;;;;;17.60;99.90;;;;;;4846099;29;20027;-79
2022/05/25 20:02:33;;;;;;;;;;;17.50;99.90;;;;;;4849654;29;19916;-82
2022/05/25 20:05:09;;;;;;;;;;;17.50;99.90;;;;;;4846154;29;20401;-82
2022/05/25 20:07:37;;;;;;;;;;;17.50;99.90;;;;;;4843847;29;19946;-83
2022/05/25 20:10:03;;;;;;;;;;;17.50;99.90;;;;;;4845125;29;19932;-83
2022/05/25 20:12:31;;;;;;;;;;;17.40;99.90;;;;;;4855063;29;19916;-84
2022/05/25 20:14:58;;;;;;;;;;;17.40;99.90;;;;;;4850358;29;19924;-83
2022/05/25 20:17:25;;;;;;;;;;;17.40;99.90;;;;;;4846385;29;19980;-82
2022/05/25 20:29:14;;;;;;;;;;;17.40;99.90;;;;;;4838293;29;20027;-84
2022/05/25 20:32:31;;;;;;;;;;;;;;;;;;;;;
2022/05/25 20:37:51;;;;;;;;;;;17.30;99.90;;;;;;4836924;29;20007;-84
2022/05/25 20:40:23;;;;;;;;;;;17.30;99.90;;;;;;4846249;29;20382;-84
2022/05/25 20:42:51;;;;;;;;;;;17.30;99.90;;;;;;4848457;29;19920;-84
2022/05/25 20:45:17;;;;;;;;;;;17.30;99.90;;;;;;4848596;29;19997;-84
2022/05/25 20:47:43;;;;;;;;;;;17.30;99.90;;;;;;4840119;29;19916;-84
2022/05/25 20:50:08;;;;;;;;;;;17.30;99.90;;;;;;4845181;29;19984;-84
2022/05/25 20:52:35;;;;;;;;;;;17.30;99.90;;;;;;4844234;29;19928;-84
2022/05/25 20:55:23;;;;;;;;;;;17.20;99.90;;;;;;4845300;29;19932;-86
2022/05/25 20:57:54;;;;;;;;;;;17.20;99.90;;;;;;4848511;29;20274;-85
2022/05/25 21:03:28;;;;;;;;;;;17.20;99.90;;;;;;4839942;29;20295;-85
2022/05/25 21:06:14;;;;;;;;;;;;;;;;;;;;;
2022/05/25 21:18:25;;;;;;;;;;;17.10;99.90;;;;;;4844091;29;19917;-84
2022/05/25 21:21:30;;;;;;;;;;;;;;;;;;;;;
2022/05/25 21:36:22;;;;;;;;;;;;;;;;;;;;;
2022/05/25 21:39:18;;;;;;;;;;;;;;;;;;;;;
2022/05/25 21:42:20;;;;;;;;;;;;;;;;;;;;;
2022/05/25 21:45:15;;;;;;;;;;;16.90;99.90;;;;;;4843552;29;19988;-84
2022/05/25 21:54:30;;;;;;;;;;;;;;;;;;;;;
2022/05/25 21:57:33;;;;;;;;;;;16.70;99.90;;;;;;4843015;29;20024;-83
2022/05/25 22:06:46;;;;;;;;;;;16.60;99.90;;;;;;4847064;29;19968;-84
2022/05/25 22:09:34;;;;;;;;;;;16.50;99.90;;;;;;4841315;29;20347;-84
2022/05/25 22:12:00;;;;;;;;;;;16.50;99.90;;;;;;4841619;29;19924;-84
2022/05/25 22:14:25;;;;;;;;;;;16.40;99.90;;;;;;4857977;29;19980;-84
2022/05/25 22:16:51;;;;;;;;;;;16.40;99.90;;;;;;4843797;29;19948;-84
2022/05/25 22:19:19;;;;;;;;;;;16.30;99.90;;;;;;4838002;29;19933;-83
2022/05/25 22:21:48;;;;;;;;;;;16.30;99.90;;;;;;4845027;29;20025;-84
2022/05/25 22:24:33;;;;;;;;;;;16.30;99.90;;;;;;4846867;29;19923;-84
2022/05/25 22:27:03;;;;;;;;;;;16.30;99.90;;;;;;4844474;29;20557;-84
2022/05/25 22:29:29;;;;;;;;;;;16.20;99.90;;;;;;4848280;29;19924;-85
2022/05/25 22:35:06;;;;;;;;;;;16.20;99.90;;;;;;4845262;29;19923;-85
2022/05/25 22:53:00;;;;;;;;;;;16.10;99.90;;;;;;4836685;29;19916;-84
2022/05/25 22:55:26;;;;;;;;;;;16.10;99.90;;;;;;4864228;29;20277;-84
2022/05/25 22:57:52;;;;;;;;;;;16.10;99.90;;;;;;4840008;29;19917;-84
2022/05/25 23:00:19;;;;;;;;;;;16.00;99.90;;;;;;4848068;29;19916;-85
2022/05/25 23:02:44;;;;;;;;;;;16.00;99.90;;;;;;4844433;29;19917;-84
2022/05/25 23:05:10;;;;;;;;;;;16.00;99.90;;;;;;4848948;29;19924;-84
2022/05/25 23:07:35;;;;;;;;;;;16.00;99.90;;;;;;4845447;29;19921;-84
2022/05/25 23:10:03;;;;;;;;;;;16.00;99.90;;;;;;4848317;29;19924;-84
2022/05/25 23:12:28;;;;;;;;;;;16.00;99.90;;;;;;4846893;29;20370;-84
2022/05/25 23:15:04;;;;;;;;;;;16.00;99.90;;;;;;4845698;29;19917;-84
2022/05/25 23:17:47;;;;;;;;;;;16.00;99.90;;;;;;4847422;29;19940;-84
2022/05/25 23:26:17;;;;;;;;;;;16.00;99.90;;;;;;4841308;29;19921;-85
2022/05/25 23:31:29;;;;;;;;;;;15.90;99.90;;;;;;4848094;29;19995;-84
2022/05/25 23:34:02;;;;;;;;;;;15.90;99.90;;;;;;4847633;29;19963;-85
2022/05/25 23:45:06;;;;;;;;;;;15.90;99.90;;;;;;4844512;29;19945;-84
2022/05/25 23:47:31;;;;;;;;;;;15.90;99.90;;;;;;4843710;29;19927;-85
2022/05/25 23:49:57;;;;;;;;;;;15.90;99.90;;;;;;4843544;29;19928;-84
2022/05/25 23:52:25;;;;;;;;;;;16.00;99.90;;;;;;4839157;29;19967;-84
2022/05/25 23:54:58;;;;;;;;;;;16.00;99.90;;;;;;4843777;29;19950;-84
2022/05/25 23:57:26;;;;;;;;;;;16.00;99.90;;;;;;4846798;29;19916;-84
